createdAt,value
2019-03-10T00:01:55.351Z,11.36
2019-03-10T00:04:23.397Z,11.25
2019-03-10T00:06:52.039Z,11.20
2019-03-10T00:09:20.054Z,11.31
2019-03-10T00:11:48.468Z,11.26
2019-03-10T00:14:17.228Z,11.29
2019-03-10T00:16:45.516Z,11.17
2019-03-10T00:19:13.855Z,11.21
2019-03-10T00:21:41.988Z,11.25
2019-03-10T00:24:10.140Z,11.21
2019-03-10T00:26:38.106Z,11.13
2019-03-10T00:29:06.271Z,11.21
2019-03-10T00:31:36.058Z,11.23
2019-03-10T00:34:04.118Z,11.25
2019-03-10T00:36:32.394Z,11.27
2019-03-10T00:39:53.118Z,11.26
2019-03-10T00:43:15.024Z,11.21
2019-03-10T00:46:35.635Z,11.11
2019-03-10T00:49:48.612Z,11.13
2019-03-10T00:52:33.364Z,11.10
2019-03-10T00:55:01.467Z,11.01
2019-03-10T00:57:29.367Z,11.00
2019-03-10T01:00:00.619Z,10.96
2019-03-10T01:02:29.335Z,11.02
2019-03-10T01:04:57.520Z,11.08
2019-03-10T01:07:27.356Z,11.12
2019-03-10T01:09:55.494Z,11.09
2019-03-10T01:12:23.566Z,11.04
2019-03-10T01:14:51.898Z,10.93
2019-03-10T01:17:19.947Z,10.98
2019-03-10T01:19:48.184Z,11.00
2019-03-10T01:22:16.465Z,10.95
2019-03-10T01:24:44.602Z,10.88
2019-03-10T01:27:12.706Z,10.88
2019-03-10T01:29:40.786Z,10.94
2019-03-10T01:32:52.573Z,10.90
2019-03-10T01:35:26.452Z,10.92
2019-03-10T01:37:54.524Z,10.95
2019-03-10T01:40:22.764Z,10.92
2019-03-10T01:42:50.797Z,10.99
2019-03-10T01:45:18.938Z,11.03
2019-03-10T01:47:47.118Z,11.01
2019-03-10T01:50:15.733Z,11.05
2019-03-10T01:52:46.786Z,11.06
2019-03-10T01:55:15.465Z,11.07
2019-03-10T01:57:43.667Z,11.05
2019-03-10T02:00:14.781Z,11.14
2019-03-10T02:02:43.563Z,11.13
2019-03-10T02:05:11.668Z,11.10
2019-03-10T02:07:39.945Z,11.13
2019-03-10T02:10:09.414Z,11.07
2019-03-10T02:12:37.637Z,11.08
2019-03-10T02:15:09.202Z,11.13
2019-03-10T02:17:37.570Z,11.02
2019-03-10T02:20:09.395Z,11.13
2019-03-10T02:22:37.674Z,11.20
2019-03-10T02:25:06.307Z,11.17
2019-03-10T02:27:34.777Z,11.20
2019-03-10T02:30:03.745Z,11.23
2019-03-10T02:32:34.860Z,11.19
2019-03-10T02:35:04.699Z,11.26
2019-03-10T02:37:33.330Z,11.27
2019-03-10T02:40:01.446Z,11.26
2019-03-10T02:42:30.238Z,11.29
2019-03-10T02:44:58.441Z,11.20
2019-03-10T02:47:26.589Z,11.32
2019-03-10T02:49:54.694Z,11.31
2019-03-10T02:52:22.881Z,11.30
2019-03-10T02:54:51.165Z,11.33
2019-03-10T02:57:19.522Z,11.38
2019-03-10T02:59:47.655Z,11.48
2019-03-10T03:02:15.874Z,11.47
2019-03-10T03:04:43.980Z,11.45
2019-03-10T03:07:12.169Z,11.43
2019-03-10T03:09:40.603Z,11.49
2019-03-10T03:12:08.788Z,11.40
2019-03-10T03:14:36.811Z,11.44
2019-03-10T03:17:05.443Z,11.55
2019-03-10T03:19:33.439Z,11.56
2019-03-10T03:22:01.688Z,11.36
2019-03-10T03:24:30.079Z,11.31
2019-03-10T03:27:02.348Z,11.36
2019-03-10T03:29:29.527Z,11.28
2019-03-10T03:31:57.745Z,11.17
2019-03-10T03:34:25.888Z,11.02
2019-03-10T03:36:54.442Z,10.96
2019-03-10T03:39:37.159Z,10.88
2019-03-10T03:42:05.266Z,10.77
2019-03-10T03:44:33.683Z,10.68
2019-03-10T03:47:02.082Z,10.65
2019-03-10T03:49:30.202Z,10.61
2019-03-10T03:51:58.358Z,10.59
2019-03-10T03:54:26.688Z,10.54
2019-03-10T03:56:54.895Z,10.47
2019-03-10T03:59:23.230Z,10.42
2019-03-10T04:01:58.908Z,10.43
2019-03-10T04:04:26.950Z,10.46
2019-03-10T04:06:55.421Z,10.37
2019-03-10T04:09:23.492Z,10.23
2019-03-10T04:11:51.556Z,10.18
2019-03-10T04:14:19.636Z,10.24
2019-03-10T04:16:47.662Z,10.15
2019-03-10T04:19:15.807Z,10.03
2019-03-10T04:21:43.785Z,10.04
2019-03-10T04:24:11.901Z,9.86
2019-03-10T04:26:40.273Z,9.87
2019-03-10T04:29:08.319Z,9.95
2019-03-10T04:31:36.405Z,9.88
2019-03-10T04:34:04.474Z,9.77
2019-03-10T04:36:32.560Z,9.84
2019-03-10T04:39:00.904Z,9.89
2019-03-10T04:41:29.716Z,9.90
2019-03-10T04:43:58.271Z,9.79
2019-03-10T04:46:26.882Z,9.79
2019-03-10T04:48:54.926Z,9.80
2019-03-10T04:51:23.178Z,9.81
2019-03-10T04:53:51.471Z,9.84
2019-03-10T04:56:48.181Z,9.96
2019-03-10T04:59:17.267Z,10.00
2019-03-10T05:01:45.402Z,9.76
2019-03-10T05:04:13.888Z,9.85
2019-03-10T05:06:42.722Z,9.92
2019-03-10T05:09:11.157Z,9.78
2019-03-10T05:11:41.280Z,9.83
2019-03-10T05:14:09.268Z,9.90
2019-03-10T05:16:38.675Z,9.79
2019-03-10T05:19:06.924Z,9.85
2019-03-10T05:21:35.027Z,9.86
2019-03-10T05:24:17.449Z,9.80
2019-03-10T05:26:45.946Z,9.84
2019-03-10T05:29:13.990Z,9.68
2019-03-10T05:31:43.154Z,9.62
2019-03-10T05:34:11.535Z,9.59
2019-03-10T05:36:41.655Z,9.64
2019-03-10T05:39:09.784Z,9.51
2019-03-10T05:41:37.837Z,9.49
2019-03-10T05:44:05.871Z,9.44
2019-03-10T05:46:35.719Z,9.36
2019-03-10T05:49:03.770Z,9.37
2019-03-10T05:51:31.849Z,9.45
2019-03-10T05:54:00.314Z,9.33
2019-03-10T05:56:28.469Z,9.38
2019-03-10T05:58:56.641Z,9.36
2019-03-10T06:01:25.454Z,9.52
2019-03-10T06:03:53.458Z,9.46
2019-03-10T06:06:21.658Z,9.38
2019-03-10T06:08:49.748Z,9.31
2019-03-10T06:11:18.183Z,9.34
2019-03-10T06:13:47.610Z,9.25
2019-03-10T06:16:17.365Z,9.36
2019-03-10T06:18:48.458Z,9.28
2019-03-10T06:21:16.830Z,9.23
2019-03-10T06:23:44.962Z,9.23
2019-03-10T06:26:13.105Z,9.12
2019-03-10T06:28:41.743Z,9.07
2019-03-10T06:31:11.034Z,8.98
2019-03-10T06:33:39.652Z,8.99
2019-03-10T06:36:12.683Z,9.01
2019-03-10T06:38:40.764Z,9.08
2019-03-10T06:41:09.424Z,9.16
2019-03-10T06:43:37.535Z,9.08
2019-03-10T06:46:05.649Z,9.11
2019-03-10T06:48:34.807Z,9.22
2019-03-10T06:51:02.821Z,9.30
2019-03-10T06:53:30.885Z,9.33
2019-03-10T06:55:59.001Z,9.35
2019-03-10T06:58:27.197Z,9.43
2019-03-10T07:00:55.549Z,9.57
2019-03-10T07:03:23.529Z,9.63
2019-03-10T07:05:51.937Z,9.67
2019-03-10T07:08:20.056Z,9.65
2019-03-10T07:10:48.203Z,9.82
2019-03-10T07:13:16.588Z,9.93
2019-03-10T07:15:44.666Z,9.99
2019-03-10T07:18:12.833Z,10.01
2019-03-10T07:20:40.828Z,10.06
2019-03-10T07:23:12.220Z,10.22
2019-03-10T07:25:40.632Z,10.34
2019-03-10T07:28:29.631Z,10.33
2019-03-10T07:31:17.661Z,10.52
2019-03-10T07:33:51.207Z,10.60
2019-03-10T07:36:50.893Z,10.77
2019-03-10T07:39:25.880Z,10.88
2019-03-10T07:42:04.724Z,10.94
2019-03-10T07:44:58.517Z,11.01
2019-03-10T07:47:33.984Z,11.07
2019-03-10T07:50:08.669Z,11.20
2019-03-10T07:52:44.549Z,11.33
2019-03-10T07:55:38.079Z,11.36
2019-03-10T07:58:31.976Z,11.43
2019-03-10T08:01:07.274Z,11.63
2019-03-10T08:03:58.155Z,11.69
2019-03-10T08:06:50.073Z,11.75
2019-03-10T08:09:24.574Z,11.75
2019-03-10T08:12:18.378Z,11.88
2019-03-10T08:15:10.830Z,11.90
2019-03-10T08:17:58.719Z,12.05
2019-03-10T08:20:48.006Z,12.15
2019-03-10T08:23:38.774Z,12.15
2019-03-10T08:26:35.617Z,12.22
2019-03-10T08:29:22.387Z,12.21
2019-03-10T08:32:12.754Z,12.28
2019-03-10T08:35:06.521Z,12.21
2019-03-10T08:37:57.670Z,12.23
2019-03-10T08:40:35.512Z,12.28
2019-03-10T08:43:26.798Z,12.23
2019-03-10T08:46:14.627Z,12.29
2019-03-10T08:49:00.966Z,12.50
2019-03-10T08:51:34.119Z,12.71
2019-03-10T08:54:10.703Z,12.82
2019-03-10T08:57:17.663Z,12.82
2019-03-10T09:00:17.362Z,12.68
2019-03-10T09:03:07.880Z,12.70
2019-03-10T09:06:04.566Z,12.61
2019-03-10T09:08:51.206Z,12.69
2019-03-10T09:11:45.115Z,12.76
2019-03-10T09:14:32.817Z,12.77
2019-03-10T09:17:26.391Z,12.85
2019-03-10T09:20:14.146Z,13.01
2019-03-10T09:23:07.732Z,12.90
2019-03-10T09:26:01.311Z,12.94
2019-03-10T09:28:58.104Z,13.05
2019-03-10T09:31:37.128Z,12.97
2019-03-10T09:34:20.114Z,12.86
2019-03-10T09:37:08.099Z,12.88
2019-03-10T09:39:47.359Z,12.76
2019-03-10T09:42:42.460Z,13.04
2019-03-10T09:45:29.021Z,13.14
2019-03-10T09:48:22.953Z,13.19
2019-03-10T09:51:09.729Z,13.18
2019-03-10T09:54:13.125Z,13.20
2019-03-10T09:56:50.581Z,13.27
2019-03-10T09:59:44.305Z,13.27
2019-03-10T10:02:22.870Z,13.43
2019-03-10T10:05:17.531Z,13.65
2019-03-10T10:08:14.413Z,13.65
2019-03-10T10:11:04.974Z,13.59
2019-03-10T10:13:46.198Z,13.56
2019-03-10T10:16:33.879Z,13.71
2019-03-10T10:19:21.557Z,13.97
2019-03-10T10:22:08.127Z,14.00
2019-03-10T10:25:07.953Z,13.97
2019-03-10T10:27:42.488Z,14.30
2019-03-10T10:30:20.878Z,14.54
2019-03-10T10:32:55.326Z,14.64
2019-03-10T10:35:48.073Z,14.69
2019-03-10T10:38:44.975Z,14.81
2019-03-10T10:41:31.589Z,15.04
2019-03-10T10:44:28.786Z,14.89
2019-03-10T10:47:02.321Z,14.81
2019-03-10T10:49:45.756Z,15.12
2019-03-10T10:52:29.513Z,15.29
2019-03-10T10:55:07.101Z,15.13
2019-03-10T10:58:05.489Z,15.11
2019-03-10T11:00:51.324Z,15.03
2019-03-10T11:03:43.430Z,14.93
2019-03-10T11:06:21.080Z,14.86
2019-03-10T11:09:03.659Z,14.82
2019-03-10T11:11:55.518Z,14.90
2019-03-10T11:14:43.240Z,15.15
2019-03-10T11:17:46.467Z,15.56
2019-03-10T11:20:33.554Z,15.97
2019-03-10T11:23:27.474Z,16.02
2019-03-10T11:26:18.777Z,16.02
2019-03-10T11:29:02.672Z,16.07
2019-03-10T11:31:45.382Z,15.78
2019-03-10T11:34:36.345Z,15.72
2019-03-10T11:37:29.932Z,15.77
2019-03-10T11:40:17.544Z,16.38
2019-03-10T11:43:08.336Z,15.91
2019-03-10T11:45:55.071Z,16.18
2019-03-10T11:48:49.508Z,16.69
2019-03-10T11:51:30.892Z,16.58
2019-03-10T11:54:19.415Z,16.68
2019-03-10T11:57:13.368Z,16.74
2019-03-10T11:59:49.556Z,16.34
2019-03-10T12:02:26.515Z,16.02
2019-03-10T12:05:33.458Z,15.69
2019-03-10T12:08:12.219Z,16.04
2019-03-10T12:10:40.542Z,16.09
2019-03-10T12:13:08.917Z,16.41
2019-03-10T12:15:36.996Z,16.44
2019-03-10T12:18:06.702Z,16.10
2019-03-10T12:20:36.998Z,15.77
2019-03-10T12:23:05.097Z,16.03
2019-03-10T12:25:33.431Z,15.91
2019-03-10T12:28:01.517Z,15.63
2019-03-10T12:30:29.868Z,15.61
2019-03-10T12:32:58.096Z,15.84
2019-03-10T12:35:34.443Z,15.70
2019-03-10T12:37:58.282Z,15.93
2019-03-10T12:40:26.312Z,15.73
2019-03-10T12:42:54.377Z,15.73
2019-03-10T12:45:23.576Z,15.79
2019-03-10T12:47:51.748Z,16.00
2019-03-10T12:50:21.046Z,15.70
2019-03-10T12:52:49.319Z,15.65
2019-03-10T12:55:25.089Z,15.96
2019-03-10T12:57:53.697Z,15.74
2019-03-10T13:00:22.107Z,15.84
2019-03-10T13:02:50.465Z,15.78
2019-03-10T13:05:21.063Z,15.85
2019-03-10T13:07:49.606Z,15.73
2019-03-10T13:10:18.059Z,15.65
2019-03-10T13:12:46.562Z,15.86
2019-03-10T13:15:14.579Z,15.84
2019-03-10T13:17:42.650Z,16.05
2019-03-10T13:20:11.012Z,16.31
2019-03-10T13:22:39.287Z,16.42
2019-03-10T13:25:09.646Z,16.26
2019-03-10T13:27:37.976Z,16.65
2019-03-10T13:30:06.573Z,17.28
2019-03-10T13:32:34.637Z,17.79
2019-03-10T13:35:02.650Z,17.87
2019-03-10T13:37:32.959Z,18.25
2019-03-10T13:40:03.482Z,18.59
2019-03-10T13:42:34.366Z,19.60
2019-03-10T13:45:02.425Z,19.21
2019-03-10T13:47:30.393Z,19.58
2019-03-10T13:49:58.726Z,19.70
2019-03-10T13:52:26.974Z,19.24
2019-03-10T13:54:55.193Z,19.60
2019-03-10T13:57:23.756Z,19.98
2019-03-10T13:59:52.688Z,18.09
2019-03-10T14:02:20.948Z,17.96
2019-03-10T14:04:48.969Z,16.69
2019-03-10T14:07:17.173Z,16.06
2019-03-10T14:09:45.363Z,16.27
2019-03-10T14:12:13.359Z,18.18
2019-03-10T14:14:41.310Z,19.45
2019-03-10T14:17:09.310Z,20.01
2019-03-10T14:19:37.742Z,21.45
2019-03-10T14:22:06.024Z,21.21
2019-03-10T14:24:35.116Z,20.65
2019-03-10T14:27:03.280Z,19.74
2019-03-10T14:29:31.282Z,19.80
2019-03-10T14:31:59.476Z,19.84
2019-03-10T14:34:27.617Z,20.64
2019-03-10T14:36:55.627Z,20.44
2019-03-10T14:39:23.646Z,19.32
2019-03-10T14:41:51.683Z,18.26
2019-03-10T14:44:19.654Z,19.67
2019-03-10T14:46:47.823Z,20.94
2019-03-10T14:49:23.232Z,21.14
2019-03-10T14:51:48.272Z,21.55
2019-03-10T14:54:16.854Z,21.78
2019-03-10T14:56:44.914Z,20.11
2019-03-10T14:59:13.202Z,18.64
2019-03-10T15:01:42.528Z,17.37
2019-03-10T15:04:10.822Z,17.15
2019-03-10T15:06:39.242Z,17.91
2019-03-10T15:09:08.012Z,20.07
2019-03-10T15:11:38.060Z,20.73
2019-03-10T15:14:06.168Z,21.67
2019-03-10T15:16:34.322Z,20.26
2019-03-10T15:19:03.331Z,21.54
2019-03-10T15:21:31.564Z,23.04
2019-03-10T15:24:01.317Z,19.89
2019-03-10T15:26:29.462Z,18.54
2019-03-10T15:28:57.667Z,16.57
2019-03-10T15:31:25.917Z,15.96
2019-03-10T15:33:54.478Z,15.19
2019-03-10T15:36:22.649Z,14.89
2019-03-10T15:38:50.892Z,14.79
2019-03-10T15:41:20.073Z,14.51
2019-03-10T15:43:49.233Z,14.60
2019-03-10T15:46:18.718Z,15.25
2019-03-10T15:48:46.722Z,17.30
2019-03-10T15:51:14.865Z,17.76
2019-03-10T15:53:43.179Z,18.82
2019-03-10T15:56:11.148Z,19.09
2019-03-10T15:58:39.393Z,19.14
2019-03-10T16:01:07.466Z,17.01
2019-03-10T16:03:36.096Z,17.66
2019-03-10T16:06:04.175Z,17.51
2019-03-10T16:08:32.317Z,16.09
2019-03-10T16:11:00.425Z,16.77
2019-03-10T16:13:29.613Z,17.35
2019-03-10T16:15:58.811Z,17.32
2019-03-10T16:18:26.850Z,18.65
2019-03-10T16:20:55.195Z,18.18
2019-03-10T16:23:23.210Z,16.64
2019-03-10T16:25:51.744Z,15.36
2019-03-10T16:28:19.721Z,14.88
2019-03-10T16:30:48.134Z,14.72
2019-03-10T16:33:16.173Z,14.32
2019-03-10T16:35:44.386Z,14.07
2019-03-10T16:38:12.582Z,14.01
2019-03-10T16:40:40.657Z,13.91
2019-03-10T16:43:08.647Z,13.59
2019-03-10T16:45:37.066Z,13.41
2019-03-10T16:48:05.055Z,13.34
2019-03-10T16:50:34.898Z,13.22
2019-03-10T16:53:03.076Z,13.08
2019-03-10T16:55:31.149Z,13.02
2019-03-10T16:57:59.286Z,12.92
2019-03-10T17:00:27.508Z,12.78
2019-03-10T17:02:55.583Z,12.60
2019-03-10T17:05:23.617Z,12.61
2019-03-10T17:07:53.247Z,12.54
2019-03-10T17:10:22.047Z,12.45
2019-03-10T17:12:52.911Z,12.36
2019-03-10T17:15:22.501Z,12.24
2019-03-10T17:17:50.869Z,12.16
2019-03-10T17:20:18.943Z,12.01
2019-03-10T17:22:48.910Z,11.92
2019-03-10T17:25:18.129Z,11.86
2019-03-10T17:27:46.416Z,11.78
2019-03-10T17:30:17.126Z,11.79
2019-03-10T17:32:45.832Z,11.69
2019-03-10T17:35:15.605Z,11.66
2019-03-10T17:37:44.085Z,11.60
2019-03-10T17:40:15.767Z,11.54
2019-03-10T17:42:43.902Z,11.51
2019-03-10T17:45:14.453Z,11.47
2019-03-10T17:47:44.029Z,11.48
2019-03-10T17:50:13.722Z,11.46
2019-03-10T17:52:43.487Z,11.40
2019-03-10T17:55:12.356Z,11.48
2019-03-10T17:57:40.645Z,11.46
2019-03-10T18:00:12.495Z,11.45
2019-03-10T18:02:40.832Z,11.53
2019-03-10T18:05:09.595Z,11.58
2019-03-10T18:07:40.404Z,11.60
2019-03-10T18:10:09.576Z,11.59
2019-03-10T18:12:38.300Z,11.59
2019-03-10T18:15:09.202Z,11.64
2019-03-10T18:17:37.700Z,11.60
2019-03-10T18:20:09.509Z,11.69
2019-03-10T18:22:37.681Z,11.40
2019-03-10T18:25:05.859Z,11.03
2019-03-10T18:27:34.093Z,10.75
2019-03-10T18:30:02.343Z,10.79
2019-03-10T18:32:31.873Z,10.80
2019-03-10T18:34:59.995Z,10.87
2019-03-10T18:37:31.030Z,10.79
2019-03-10T18:39:58.617Z,10.73
2019-03-10T18:42:27.134Z,10.76
2019-03-10T18:44:56.615Z,10.84
2019-03-10T18:47:24.812Z,10.38
2019-03-10T18:49:55.318Z,9.25
2019-03-10T18:52:23.417Z,7.69
2019-03-10T18:54:51.601Z,7.16
2019-03-10T18:57:19.771Z,7.00
2019-03-10T18:59:48.222Z,6.85
2019-03-10T19:02:16.215Z,7.04
2019-03-10T19:04:44.287Z,7.00
2019-03-10T19:07:12.614Z,6.99
2019-03-10T19:09:40.910Z,7.07
2019-03-10T19:12:09.308Z,7.13
2019-03-10T19:14:39.252Z,7.23
2019-03-10T19:17:07.595Z,7.30
2019-03-10T19:19:35.525Z,7.27
2019-03-10T19:22:03.527Z,7.18
2019-03-10T19:24:31.698Z,7.12
2019-03-10T19:26:59.773Z,7.11
2019-03-10T19:29:28.034Z,7.13
2019-03-10T19:31:58.859Z,7.16
2019-03-10T19:34:27.085Z,7.18
2019-03-10T19:36:57.353Z,7.23
2019-03-10T19:39:25.298Z,7.33
2019-03-10T19:41:53.963Z,7.46
2019-03-10T19:44:23.137Z,7.57
2019-03-10T19:46:51.384Z,7.65
2019-03-10T19:49:19.385Z,7.67
2019-03-10T19:51:47.528Z,7.69
2019-03-10T19:54:15.906Z,7.70
2019-03-10T19:56:43.972Z,7.71
2019-03-10T19:59:12.368Z,7.67
2019-03-10T20:01:40.640Z,7.64
2019-03-10T20:04:08.785Z,7.69
2019-03-10T20:06:36.847Z,7.76
2019-03-10T20:09:06.244Z,7.73
2019-03-10T20:11:36.223Z,7.80
2019-03-10T20:14:06.416Z,7.76
2019-03-10T20:16:34.693Z,7.79
2019-03-10T20:19:02.896Z,7.88
2019-03-10T20:21:32.085Z,7.92
2019-03-10T20:24:00.171Z,7.96
2019-03-10T20:26:30.016Z,7.86
2019-03-10T20:28:58.428Z,7.81
2019-03-10T20:31:26.861Z,7.73
2019-03-10T20:33:54.890Z,7.66
2019-03-10T20:36:23.924Z,7.67
2019-03-10T20:39:03.877Z,7.68
2019-03-10T20:41:33.818Z,7.74
2019-03-10T20:44:02.217Z,7.69
2019-03-10T20:46:31.489Z,7.66
2019-03-10T20:48:59.595Z,7.67
2019-03-10T20:51:28.720Z,7.72
2019-03-10T20:53:57.128Z,7.67
2019-03-10T20:56:25.969Z,7.67
2019-03-10T20:58:54.076Z,7.62
2019-03-10T21:01:26.914Z,7.58
2019-03-10T21:03:56.440Z,7.52
2019-03-10T21:06:24.619Z,7.58
2019-03-10T21:08:52.909Z,7.52
2019-03-10T21:11:21.073Z,7.57
2019-03-10T21:13:49.230Z,7.53
2019-03-10T21:16:17.279Z,7.52
2019-03-10T21:18:45.439Z,7.55
2019-03-10T21:21:15.562Z,7.57
2019-03-10T21:23:43.583Z,7.58
2019-03-10T21:26:11.860Z,7.61
2019-03-10T21:28:42.445Z,7.58
2019-03-10T21:31:10.776Z,7.59
2019-03-10T21:33:38.953Z,7.64
2019-03-10T21:36:08.622Z,7.66
2019-03-10T21:38:36.707Z,7.66
2019-03-10T21:41:14.137Z,7.62
2019-03-10T21:43:39.445Z,7.56
2019-03-10T21:46:09.320Z,7.56
2019-03-10T21:48:37.697Z,7.53
2019-03-10T21:51:05.942Z,7.48
2019-03-10T21:53:34.051Z,7.46
2019-03-10T21:56:02.131Z,7.48
2019-03-10T21:58:30.706Z,7.42
2019-03-10T22:01:00.438Z,7.44
2019-03-10T22:03:29.592Z,7.47
2019-03-10T22:05:58.359Z,7.34
2019-03-10T22:08:26.492Z,7.38
2019-03-10T22:10:54.692Z,7.35
2019-03-10T22:13:23.231Z,7.32
2019-03-10T22:15:51.710Z,7.40
2019-03-10T22:18:20.097Z,7.36
2019-03-10T22:20:48.226Z,7.38
2019-03-10T22:23:16.335Z,7.30
2019-03-10T22:25:44.382Z,7.32
2019-03-10T22:28:12.559Z,7.27
2019-03-10T22:30:40.767Z,7.27
2019-03-10T22:33:10.056Z,7.34
2019-03-10T22:35:38.284Z,7.34
2019-03-10T22:38:06.274Z,7.44
2019-03-10T22:40:36.114Z,7.49
2019-03-10T22:43:04.186Z,7.46
2019-03-10T22:45:32.306Z,7.47
2019-03-10T22:48:00.406Z,7.50
2019-03-10T22:50:28.415Z,7.49
2019-03-10T22:52:56.552Z,7.53
2019-03-10T22:55:25.348Z,7.53
2019-03-10T22:57:53.325Z,7.43
2019-03-10T23:00:22.619Z,7.44
2019-03-10T23:02:52.542Z,7.41
2019-03-10T23:05:20.922Z,7.41
2019-03-10T23:07:48.928Z,7.42
2019-03-10T23:10:17.615Z,7.41
2019-03-10T23:12:45.648Z,7.36
2019-03-10T23:15:14.154Z,7.39
2019-03-10T23:17:42.435Z,7.34
2019-03-10T23:20:11.893Z,7.34
2019-03-10T23:22:39.937Z,7.31
2019-03-10T23:25:07.905Z,7.25
2019-03-10T23:27:36.219Z,7.25
2019-03-10T23:30:07.269Z,7.25
2019-03-10T23:32:35.289Z,7.18
2019-03-10T23:35:03.700Z,7.18
2019-03-10T23:37:31.696Z,7.16
2019-03-10T23:39:59.646Z,7.26
2019-03-10T23:42:27.686Z,7.11
2019-03-10T23:44:55.677Z,7.04
2019-03-10T23:47:23.831Z,6.96
2019-03-10T23:49:51.848Z,6.94
2019-03-10T23:52:19.903Z,6.86
2019-03-10T23:54:47.967Z,6.76
2019-03-10T23:57:16.731Z,6.77
2019-03-10T23:59:45.038Z,6.78
